Time;durP1;ratioP1;P1;durP2;ratioP2;P2;SDS_P1;SDS_P2;PMS_P1;PMS_P2;Temp;Humidity;BMP_temperature;BMP_pressure;BME280_temperature;BME280_humidity;BME280_pressure;Samples;Min_cycle;Max_cycle;Signal;HPM_P1;HPM_P2
2023/04/27 00:00:23;;;;;;;;;;;8.50;83.10;;;;;;5046446;28;20442;-66
2023/04/27 00:02:49;;;;;;;;;;;8.40;83.10;;;;;;5046413;28;19917;-66
2023/04/27 00:05:15;;;;;;;;;;;8.40;83.10;;;;;;5046759;28;19920;-66
2023/04/27 00:07:40;;;;;;;;;;;8.40;83.10;;;;;;5046741;27;19913;-66
2023/04/27 00:10:06;;;;;;;;;;;8.30;83.10;;;;;;5028722;28;19920;-66
2023/04/27 00:12:31;;;;;;;;;;;8.40;83.10;;;;;;5046134;28;19909;-66
2023/04/27 00:14:57;;;;;;;;;;;8.30;83.10;;;;;;5046569;28;20370;-66
2023/04/27 00:17:23;;;;;;;;;;;8.30;83.10;;;;;;5028434;28;19909;-66
2023/04/27 00:19:48;;;;;;;;;;;8.30;83.10;;;;;;5046517;28;19955;-66
2023/04/27 00:22:13;;;;;;;;;;;8.30;83.20;;;;;;5045748;28;19966;-66
2023/04/27 00:24:40;;;;;;;;;;;8.20;83.10;;;;;;5046424;28;20356;-66
2023/04/27 00:27:06;;;;;;;;;;;8.20;83.20;;;;;;5028279;28;19917;-66
2023/04/27 00:29:31;;;;;;;;;;;8.20;83.20;;;;;;5046335;28;19956;-66
2023/04/27 00:31:57;;;;;;;;;;;8.20;83.10;;;;;;5046112;28;19912;-66
2023/04/27 00:34:22;;;;;;;;;;;8.20;83.20;;;;;;5046225;28;19913;-66
2023/04/27 00:36:48;;;;;;;;;;;8.20;83.20;;;;;;5028259;28;19912;-66
2023/04/27 00:39:13;;;;;;;;;;;8.10;83.30;;;;;;5046440;28;19969;-66
2023/04/27 00:41:39;;;;;;;;;;;8.10;83.20;;;;;;5045702;28;19916;-66
2023/04/27 00:44:04;;;;;;;;;;;8.10;83.30;;;;;;5046010;28;20058;-66
2023/04/27 00:46:30;;;;;;;;;;;8.10;83.20;;;;;;5046401;28;19909;-66
2023/04/27 00:48:56;;;;;;;;;;;8.10;83.30;;;;;;5046175;28;19909;-66
2023/04/27 00:51:26;;;;;;;;;;;8.00;83.20;;;;;;5028155;28;20280;-66
2023/04/27 00:53:52;;;;;;;;;;;8.00;83.30;;;;;;5045947;28;19913;-66
2023/04/27 00:56:18;;;;;;;;;;;8.00;83.30;;;;;;5045895;28;20266;-66
2023/04/27 00:58:43;;;;;;;;;;;8.00;83.30;;;;;;5028349;28;19920;-66
2023/04/27 01:01:09;;;;;;;;;;;8.00;83.30;;;;;;5027846;28;19940;-66
2023/04/27 01:03:35;;;;;;;;;;;8.00;83.40;;;;;;5045542;28;19917;-66
2023/04/27 01:06:00;;;;;;;;;;;8.00;83.30;;;;;;5045886;28;20385;-66
2023/04/27 01:08:29;;;;;;;;;;;7.90;83.30;;;;;;5045046;28;20542;-66
2023/04/27 01:10:54;;;;;;;;;;;7.90;83.30;;;;;;5045785;28;19919;-66
2023/04/27 01:13:20;;;;;;;;;;;7.90;83.30;;;;;;5045533;28;19909;-66
2023/04/27 01:15:45;;;;;;;;;;;7.90;83.40;;;;;;5045433;28;20309;-66
2023/04/27 01:18:11;;;;;;;;;;;7.80;83.30;;;;;;5045705;28;19928;-66
2023/04/27 01:20:37;;;;;;;;;;;7.90;83.40;;;;;;5027678;28;20538;-66
2023/04/27 01:23:03;;;;;;;;;;;7.80;83.40;;;;;;5045399;28;19923;-66
2023/04/27 01:25:28;;;;;;;;;;;7.80;83.40;;;;;;5045673;28;19915;-66
2023/04/27 01:27:54;;;;;;;;;;;7.80;83.40;;;;;;5045774;28;20376;-66
2023/04/27 01:30:21;;;;;;;;;;;7.80;83.40;;;;;;5045642;28;19913;-66
2023/04/27 01:32:47;;;;;;;;;;;7.80;83.30;;;;;;5017710;28;19913;-66
2023/04/27 01:35:12;;;;;;;;;;;7.80;83.40;;;;;;5025480;28;19921;-66
2023/04/27 01:37:38;;;;;;;;;;;7.70;83.30;;;;;;5025410;28;19909;-66
2023/04/27 01:40:05;;;;;;;;;;;7.70;83.40;;;;;;5025521;28;19913;-66
2023/04/27 01:42:30;;;;;;;;;;;7.70;83.40;;;;;;5044684;28;19917;-66
2023/04/27 01:44:56;;;;;;;;;;;7.70;83.50;;;;;;5044865;28;19916;-66
2023/04/27 01:47:21;;;;;;;;;;;7.70;83.40;;;;;;5027510;28;19921;-66
2023/04/27 01:49:47;;;;;;;;;;;7.70;83.40;;;;;;5027232;28;20381;-66
2023/04/27 01:52:12;;;;;;;;;;;7.70;83.40;;;;;;5044648;28;19920;-66
2023/04/27 01:54:38;;;;;;;;;;;7.60;83.30;;;;;;5044919;28;19912;-66
2023/04/27 01:57:04;;;;;;;;;;;7.60;83.50;;;;;;5040733;28;19978;-66
2023/04/27 01:59:29;;;;;;;;;;;7.60;83.50;;;;;;5024902;28;19920;-67
2023/04/27 02:01:55;;;;;;;;;;;7.60;83.50;;;;;;5044614;28;19919;-66
2023/04/27 02:04:20;;;;;;;;;;;7.60;83.50;;;;;;5044939;28;19934;-66
2023/04/27 02:06:46;;;;;;;;;;;7.60;83.50;;;;;;5026534;28;19935;-66
2023/04/27 02:09:12;;;;;;;;;;;7.60;83.50;;;;;;5026435;28;19944;-66
2023/04/27 02:11:37;;;;;;;;;;;7.50;83.50;;;;;;5043748;28;19965;-66
2023/04/27 02:14:03;;;;;;;;;;;7.50;83.50;;;;;;5043872;28;19909;-66
2023/04/27 02:16:28;;;;;;;;;;;7.50;83.50;;;;;;5043995;28;19909;-66
2023/04/27 02:18:54;;;;;;;;;;;7.50;83.50;;;;;;5044590;28;19941;-66
2023/04/27 02:21:20;;;;;;;;;;;7.50;83.60;;;;;;5046103;28;19959;-66
2023/04/27 02:23:45;;;;;;;;;;;7.50;83.60;;;;;;5047966;28;20369;-66
2023/04/27 02:26:18;;;;;;;;;;;7.50;83.70;;;;;;5048508;28;19944;-66
2023/04/27 02:28:44;;;;;;;;;;;7.50;83.70;;;;;;5048152;28;20015;-66
2023/04/27 02:31:10;;;;;;;;;;;7.40;83.60;;;;;;5030308;28;19913;-66
2023/04/27 02:33:35;;;;;;;;;;;7.40;83.70;;;;;;5029882;28;20365;-66
2023/04/27 02:36:01;;;;;;;;;;;7.40;83.60;;;;;;5030264;28;19973;-66
2023/04/27 02:38:28;;;;;;;;;;;7.40;83.70;;;;;;5047943;28;19945;-66
2023/04/27 02:40:56;;;;;;;;;;;7.40;83.70;;;;;;5047927;28;19917;-66
2023/04/27 02:43:21;;;;;;;;;;;7.40;83.80;;;;;;5029426;28;19955;-66
2023/04/27 02:45:47;;;;;;;;;;;7.30;83.60;;;;;;5048080;28;19952;-66
2023/04/27 02:48:12;;;;;;;;;;;7.30;83.70;;;;;;5048081;28;19913;-66
2023/04/27 02:50:41;;;;;;;;;;;7.30;83.60;;;;;;5047911;28;20504;-66
2023/04/27 02:53:07;;;;;;;;;;;7.30;83.70;;;;;;5029391;28;20271;-66
2023/04/27 02:55:33;;;;;;;;;;;7.30;83.70;;;;;;5047361;28;19913;-66
2023/04/27 02:57:58;;;;;;;;;;;7.20;83.70;;;;;;5029427;28;19916;-66
2023/04/27 03:00:24;;;;;;;;;;;7.30;83.70;;;;;;5047392;28;19913;-66
2023/04/27 03:02:49;;;;;;;;;;;7.20;83.70;;;;;;5047619;28;19977;-66
2023/04/27 03:05:15;;;;;;;;;;;7.20;83.70;;;;;;5047660;28;19980;-66
2023/04/27 03:07:41;;;;;;;;;;;7.20;83.70;;;;;;5047565;28;19916;-66
2023/04/27 03:10:06;;;;;;;;;;;7.20;83.70;;;;;;5047590;28;19940;-66
2023/04/27 03:12:32;;;;;;;;;;;7.20;83.80;;;;;;5047010;28;20003;-66
2023/04/27 03:14:58;;;;;;;;;;;7.20;83.70;;;;;;5047409;28;19958;-66
2023/04/27 03:17:24;;;;;;;;;;;7.10;83.70;;;;;;5047554;28;19985;-66
2023/04/27 03:19:49;;;;;;;;;;;7.10;83.80;;;;;;5047600;28;20365;-66
2023/04/27 03:22:15;;;;;;;;;;;7.10;83.80;;;;;;5046749;28;20308;-66
2023/04/27 03:24:41;;;;;;;;;;;7.10;83.80;;;;;;5047400;28;20342;-66
2023/04/27 03:27:07;;;;;;;;;;;7.10;83.80;;;;;;5047049;27;20000;-66
2023/04/27 03:29:32;;;;;;;;;;;7.10;83.90;;;;;;5047169;28;20334;-66
2023/04/27 03:31:58;;;;;;;;;;;7.10;83.80;;;;;;5046450;28;19912;-66
2023/04/27 03:34:23;;;;;;;;;;;7.00;83.80;;;;;;5047203;28;19908;-66
2023/04/27 03:36:49;;;;;;;;;;;7.00;83.70;;;;;;5029154;28;19912;-66
2023/04/27 03:39:15;;;;;;;;;;;7.00;83.80;;;;;;5047394;28;19944;-66
2023/04/27 03:41:40;;;;;;;;;;;7.00;83.80;;;;;;5046558;28;19959;-66
2023/04/27 03:44:06;;;;;;;;;;;7.00;83.80;;;;;;5046658;28;19938;-66
2023/04/27 03:46:31;;;;;;;;;;;7.00;83.90;;;;;;5046047;28;20028;-66
2023/04/27 03:48:57;;;;;;;;;;;7.00;83.90;;;;;;5047177;28;20569;-66
2023/04/27 03:51:22;;;;;;;;;;;7.00;83.90;;;;;;5046983;28;19928;-66
2023/04/27 03:53:48;;;;;;;;;;;7.00;83.90;;;;;;5046363;28;20625;-66
2023/04/27 03:56:13;;;;;;;;;;;6.90;83.80;;;;;;5046957;28;19909;-66
2023/04/27 03:58:39;;;;;;;;;;;6.90;83.90;;;;;;5040760;28;20319;-66
2023/04/27 04:01:05;;;;;;;;;;;6.90;83.80;;;;;;5046835;28;19913;-66
2023/04/27 04:03:30;;;;;;;;;;;6.90;83.80;;;;;;5046448;28;19913;-66
2023/04/27 04:05:56;;;;;;;;;;;6.90;83.80;;;;;;5046863;28;19961;-66
2023/04/27 04:08:21;;;;;;;;;;;6.90;83.80;;;;;;5046686;28;19913;-66
2023/04/27 04:10:47;;;;;;;;;;;6.90;83.80;;;;;;5046639;28;19913;-66
2023/04/27 04:13:12;;;;;;;;;;;6.90;83.90;;;;;;5046219;28;19912;-66
2023/04/27 04:15:38;;;;;;;;;;;6.80;83.90;;;;;;5046432;28;20011;-66
2023/04/27 04:18:03;;;;;;;;;;;6.90;83.90;;;;;;5046504;28;20449;-66
2023/04/27 04:20:29;;;;;;;;;;;6.90;83.90;;;;;;5046516;28;19938;-66
2023/04/27 04:22:54;;;;;;;;;;;6.80;83.80;;;;;;5045973;28;19974;-66
2023/04/27 04:25:20;;;;;;;;;;;6.80;83.80;;;;;;5046391;28;19916;-65
2023/04/27 04:27:47;;;;;;;;;;;6.80;83.90;;;;;;5046390;28;20354;-65
2023/04/27 04:30:12;;;;;;;;;;;6.80;83.90;;;;;;5046640;28;20603;-66
2023/04/27 04:32:39;;;;;;;;;;;6.80;83.90;;;;;;5028302;28;19912;-66
2023/04/27 04:35:05;;;;;;;;;;;6.80;83.90;;;;;;5046255;28;19913;-66
2023/04/27 04:37:31;;;;;;;;;;;6.80;83.90;;;;;;5046224;28;19958;-66
2023/04/27 04:39:57;;;;;;;;;;;6.80;83.90;;;;;;5028301;28;19913;-66
2023/04/27 04:42:22;;;;;;;;;;;6.80;84.00;;;;;;5045626;28;19973;-66
2023/04/27 04:44:48;;;;;;;;;;;6.80;83.90;;;;;;5045167;28;20399;-66
2023/04/27 04:47:14;;;;;;;;;;;6.80;84.00;;;;;;5045835;28;19961;-66
2023/04/27 04:49:40;;;;;;;;;;;6.70;83.90;;;;;;5046026;28;20446;-66
2023/04/27 04:52:05;;;;;;;;;;;6.80;84.00;;;;;;5045020;28;20003;-66
2023/04/27 04:54:30;;;;;;;;;;;6.70;83.90;;;;;;5045976;28;19999;-66
2023/04/27 04:56:57;;;;;;;;;;;6.70;83.90;;;;;;5042301;28;19924;-66
2023/04/27 04:59:23;;;;;;;;;;;6.70;83.90;;;;;;5042932;28;19958;-65
2023/04/27 05:01:49;;;;;;;;;;;6.70;84.00;;;;;;5027832;28;20433;-66
2023/04/27 05:04:14;;;;;;;;;;;6.70;84.00;;;;;;5045690;27;19961;-66
2023/04/27 05:06:40;;;;;;;;;;;6.70;84.00;;;;;;5045762;28;19913;-66
2023/04/27 05:09:05;;;;;;;;;;;6.70;83.90;;;;;;5045689;28;20326;-66
2023/04/27 05:11:31;;;;;;;;;;;6.70;84.00;;;;;;5045346;28;19913;-66
2023/04/27 05:13:56;;;;;;;;;;;6.70;84.00;;;;;;5045323;28;19951;-66
2023/04/27 05:16:22;;;;;;;;;;;6.70;84.10;;;;;;5045646;28;19924;-66
2023/04/27 05:18:47;;;;;;;;;;;6.70;84.00;;;;;;5045523;28;19939;-66
2023/04/27 05:21:19;;;;;;;;;;;6.70;84.10;;;;;;5045425;28;19913;-66
2023/04/27 05:23:45;;;;;;;;;;;6.70;84.10;;;;;;5045156;28;19916;-66
2023/04/27 05:26:11;;;;;;;;;;;6.70;84.10;;;;;;5044878;28;20295;-66
2023/04/27 05:28:37;;;;;;;;;;;6.70;84.10;;;;;;5044498;28;19909;-66
2023/04/27 05:31:02;;;;;;;;;;;6.70;84.10;;;;;;5044707;28;20526;-66
2023/04/27 05:33:28;;;;;;;;;;;6.70;84.10;;;;;;5044415;28;19920;-66
2023/04/27 05:35:53;;;;;;;;;;;6.70;84.20;;;;;;5044137;28;19940;-66
2023/04/27 05:38:19;;;;;;;;;;;6.70;84.20;;;;;;5044210;28;20678;-66
2023/04/27 05:40:44;;;;;;;;;;;6.70;84.10;;;;;;5045222;28;19917;-66
2023/04/27 05:43:10;;;;;;;;;;;6.70;84.30;;;;;;5026859;28;19946;-66
2023/04/27 05:45:38;;;;;;;;;;;6.70;84.30;;;;;;5045386;28;19936;-66
2023/04/27 05:48:03;;;;;;;;;;;6.70;84.30;;;;;;5044735;28;20386;-66
2023/04/27 05:50:29;;;;;;;;;;;6.70;84.30;;;;;;5045316;28;19913;-66
2023/04/27 05:52:54;;;;;;;;;;;6.70;84.30;;;;;;5044837;28;19913;-66
2023/04/27 05:55:20;;;;;;;;;;;6.80;84.30;;;;;;5028453;28;19919;-66
2023/04/27 05:57:46;;;;;;;;;;;6.80;84.30;;;;;;5030391;28;20008;-66
2023/04/27 06:00:13;;;;;;;;;;;6.80;84.30;;;;;;5048011;28;19999;-66
2023/04/27 06:02:39;;;;;;;;;;;6.80;84.20;;;;;;5048380;28;19964;-66
2023/04/27 06:05:05;;;;;;;;;;;6.90;84.30;;;;;;5031003;28;20442;-66
2023/04/27 06:07:31;;;;;;;;;;;6.90;84.30;;;;;;5048467;28;20319;-66
2023/04/27 06:09:56;;;;;;;;;;;6.90;84.20;;;;;;5048550;28;19913;-66
2023/04/27 06:12:22;;;;;;;;;;;6.90;84.20;;;;;;5048239;28;19989;-66
2023/04/27 06:14:47;;;;;;;;;;;6.90;84.10;;;;;;5048560;28;19913;-66
2023/04/27 06:17:13;;;;;;;;;;;7.00;84.10;;;;;;5048313;28;20335;-66
2023/04/27 06:19:38;;;;;;;;;;;7.00;84.20;;;;;;5048397;28;19908;-66
2023/04/27 06:22:04;;;;;;;;;;;7.00;84.10;;;;;;5047805;28;19921;-66
2023/04/27 06:24:29;;;;;;;;;;;7.00;84.00;;;;;;5048138;28;19917;-66
2023/04/27 06:26:55;;;;;;;;;;;7.00;84.10;;;;;;5048077;28;20311;-66
2023/04/27 06:29:21;;;;;;;;;;;7.10;84.00;;;;;;5048412;28;19919;-66
2023/04/27 06:31:46;;;;;;;;;;;7.10;83.90;;;;;;5047860;28;20345;-66
2023/04/27 06:34:12;;;;;;;;;;;7.20;83.90;;;;;;5048044;28;19913;-66
2023/04/27 06:36:37;;;;;;;;;;;7.20;84.00;;;;;;5047924;28;19917;-66
2023/04/27 06:39:03;;;;;;;;;;;7.20;83.90;;;;;;5048035;28;19948;-66
2023/04/27 06:41:28;;;;;;;;;;;7.20;83.90;;;;;;5029754;28;19922;-66
2023/04/27 06:43:54;;;;;;;;;;;7.30;83.90;;;;;;5047894;28;19920;-66
2023/04/27 06:46:19;;;;;;;;;;;7.30;83.90;;;;;;5030168;28;19928;-66
2023/04/27 06:48:45;;;;;;;;;;;7.30;83.90;;;;;;5047398;28;19996;-66
2023/04/27 06:51:11;;;;;;;;;;;7.30;83.90;;;;;;5047978;28;20011;-66
2023/04/27 06:53:37;;;;;;;;;;;7.40;83.90;;;;;;5029788;28;19912;-66
2023/04/27 06:56:03;;;;;;;;;;;7.40;83.90;;;;;;5047948;28;20012;-66
2023/04/27 06:58:29;;;;;;;;;;;7.40;83.80;;;;;;5041500;28;20012;-66
2023/04/27 07:00:54;;;;;;;;;;;7.50;83.80;;;;;;5047758;28;19913;-66
2023/04/27 07:03:20;;;;;;;;;;;7.50;83.90;;;;;;5047754;28;19956;-66
2023/04/27 07:05:46;;;;;;;;;;;7.50;83.80;;;;;;5047479;27;19913;-66
2023/04/27 07:08:12;;;;;;;;;;;7.50;83.70;;;;;;5046728;28;19912;-66
2023/04/27 07:10:37;;;;;;;;;;;7.50;83.70;;;;;;5047448;28;20335;-66
2023/04/27 07:13:03;;;;;;;;;;;7.60;83.60;;;;;;5047023;28;19974;-66
2023/04/27 07:15:32;;;;;;;;;;;7.60;83.60;;;;;;5047592;28;20307;-66
2023/04/27 07:17:58;;;;;;;;;;;7.60;83.50;;;;;;5047771;28;19985;-66
2023/04/27 07:20:23;;;;;;;;;;;7.60;83.50;;;;;;5029680;28;19925;-66
2023/04/27 07:22:49;;;;;;;;;;;7.70;83.60;;;;;;5046924;28;19920;-66
2023/04/27 07:25:15;;;;;;;;;;;7.70;83.50;;;;;;5047332;28;19913;-66
2023/04/27 07:27:40;;;;;;;;;;;7.70;83.50;;;;;;5062400;28;19913;-66
2023/04/27 07:30:08;;;;;;;;;;;7.70;83.50;;;;;;5047140;28;20004;-66
2023/04/27 07:32:34;;;;;;;;;;;7.70;83.40;;;;;;5046982;28;19908;-66
2023/04/27 07:34:59;;;;;;;;;;;7.80;83.40;;;;;;5047262;28;19919;-66
2023/04/27 07:37:25;;;;;;;;;;;7.80;83.30;;;;;;5046822;28;19916;-66
2023/04/27 07:39:51;;;;;;;;;;;7.80;83.30;;;;;;5029571;28;19919;-66
2023/04/27 07:42:17;;;;;;;;;;;7.90;83.20;;;;;;5046469;28;19912;-66
2023/04/27 07:44:43;;;;;;;;;;;7.90;83.20;;;;;;5047086;28;19920;-66
2023/04/27 07:47:09;;;;;;;;;;;7.90;83.60;;;;;;5028997;28;19912;-66
2023/04/27 07:49:36;;;;;;;;;;;7.90;83.00;;;;;;5047245;28;19920;-66
2023/04/27 07:52:03;;;;;;;;;;;8.00;83.00;;;;;;5046372;28;19940;-66
2023/04/27 07:54:29;;;;;;;;;;;8.00;83.00;;;;;;5046974;28;19916;-66
2023/04/27 07:56:54;;;;;;;;;;;8.00;82.90;;;;;;5043744;28;19934;-66
2023/04/27 07:59:20;;;;;;;;;;;8.00;83.10;;;;;;5045634;28;19921;-66
2023/04/27 08:01:46;;;;;;;;;;;8.10;83.20;;;;;;5046592;27;19917;-66
2023/04/27 08:04:11;;;;;;;;;;;8.10;83.10;;;;;;5046839;28;19916;-66
2023/04/27 08:06:37;;;;;;;;;;;8.10;82.90;;;;;;5046710;28;20563;-66
2023/04/27 08:09:03;;;;;;;;;;;8.20;82.90;;;;;;5046657;28;19920;-66
2023/04/27 08:11:29;;;;;;;;;;;8.20;82.90;;;;;;5045881;28;20281;-67
2023/04/27 08:13:54;;;;;;;;;;;8.20;82.90;;;;;;5026402;28;19920;-66
2023/04/27 08:16:20;;;;;;;;;;;8.30;82.80;;;;;;5045420;28;19912;-67
2023/04/27 08:18:45;;;;;;;;;;;8.30;82.80;;;;;;5045433;28;19912;-66
2023/04/27 08:21:11;;;;;;;;;;;8.30;82.70;;;;;;5045668;28;19917;-66
2023/04/27 08:23:37;;;;;;;;;;;8.40;82.60;;;;;;5044800;28;19939;-66
2023/04/27 08:26:03;;;;;;;;;;;8.40;82.40;;;;;;5045252;28;19913;-66
2023/04/27 08:28:28;;;;;;;;;;;8.40;82.40;;;;;;5045399;28;19916;-66
2023/04/27 08:30:54;;;;;;;;;;;8.40;82.50;;;;;;5046468;28;19936;-66
2023/04/27 08:33:20;;;;;;;;;;;8.50;83.10;;;;;;5046083;28;19913;-66
2023/04/27 08:35:45;;;;;;;;;;;8.50;82.80;;;;;;5046157;28;20346;-66
2023/04/27 08:38:11;;;;;;;;;;;8.50;82.80;;;;;;5046038;28;19913;-66
2023/04/27 08:40:41;;;;;;;;;;;8.60;82.20;;;;;;5045928;28;19965;-66
2023/04/27 08:43:06;;;;;;;;;;;8.60;82.20;;;;;;5045620;28;19913;-67
2023/04/27 08:45:32;;;;;;;;;;;8.70;82.10;;;;;;5045708;28;19920;-66
2023/04/27 08:47:58;;;;;;;;;;;8.70;82.00;;;;;;5045295;28;20029;-67
2023/04/27 08:50:23;;;;;;;;;;;8.70;82.10;;;;;;5045583;28;19920;-67
2023/04/27 08:52:49;;;;;;;;;;;8.80;82.40;;;;;;5045180;28;19923;-67
2023/04/27 08:55:15;;;;;;;;;;;8.80;82.30;;;;;;5044942;28;20255;-66
2023/04/27 08:57:41;;;;;;;;;;;8.80;82.00;;;;;;5044658;28;19916;-66
2023/04/27 09:00:13;;;;;;;;;;;8.90;81.90;;;;;;5045277;28;19987;-66
2023/04/27 09:02:45;;;;;;;;;;;8.90;81.70;;;;;;5045483;28;19909;-66
2023/04/27 09:05:18;;;;;;;;;;;9.00;81.70;;;;;;5045652;28;19913;-66
2023/04/27 09:08:06;;;;;;;;;;;9.00;81.60;;;;;;5027765;28;20616;-66
2023/04/27 09:10:44;;;;;;;;;;;9.00;81.50;;;;;;5045816;28;19909;-67
2023/04/27 09:13:09;;;;;;;;;;;9.10;81.60;;;;;;5007825;28;20358;-66
2023/04/27 09:15:45;;;;;;;;;;;9.20;81.40;;;;;;5026068;28;19924;-67
2023/04/27 09:18:15;;;;;;;;;;;9.20;81.20;;;;;;5025821;28;19920;-67
2023/04/27 09:20:48;;;;;;;;;;;9.30;81.30;;;;;;5007666;28;19917;-67
2023/04/27 09:23:27;;;;;;;;;;;9.30;80.90;;;;;;5025231;28;20453;-66
2023/04/27 09:25:55;;;;;;;;;;;9.40;81.00;;;;;;5031376;28;19988;-67
2023/04/27 09:28:21;;;;;;;;;;;9.40;80.90;;;;;;5045434;28;19934;-67
2023/04/27 09:30:53;;;;;;;;;;;9.50;81.00;;;;;;5044864;28;19916;-67
2023/04/27 09:33:23;;;;;;;;;;;9.50;81.60;;;;;;5060665;27;20345;-67
2023/04/27 09:35:49;;;;;;;;;;;9.50;80.80;;;;;;5045425;28;20007;-66
2023/04/27 09:38:16;;;;;;;;;;;9.60;80.80;;;;;;5045299;28;20369;-67
2023/04/27 09:40:41;;;;;;;;;;;9.70;80.80;;;;;;5045234;28;19912;-67
2023/04/27 09:43:07;;;;;;;;;;;9.70;80.70;;;;;;5044600;28;20393;-67
2023/04/27 09:45:33;;;;;;;;;;;9.80;80.50;;;;;;5045256;28;19965;-67
2023/04/27 09:47:59;;;;;;;;;;;9.80;80.30;;;;;;5045248;28;20016;-67
2023/04/27 09:50:25;;;;;;;;;;;9.90;80.50;;;;;;5045152;28;19919;-67
2023/04/27 09:52:51;;;;;;;;;;;9.90;80.20;;;;;;5044994;28;19913;-67
2023/04/27 09:55:19;;;;;;;;;;;10.00;79.90;;;;;;5045154;28;19913;-67
2023/04/27 09:58:05;;;;;;;;;;;10.00;79.60;;;;;;5038819;28;19979;-67
2023/04/27 10:00:40;;;;;;;;;;;10.00;79.60;;;;;;5044265;28;20043;-67
2023/04/27 10:03:44;;;;;;;;;;;10.10;79.60;;;;;;5044386;28;19921;-67
2023/04/27 10:06:34;;;;;;;;;;;10.10;79.60;;;;;;4964219;28;19915;-67
2023/04/27 10:09:04;;;;;;;;;;;10.20;79.60;;;;;;4962452;28;20608;-67
2023/04/27 10:11:39;;;;;;;;;;;10.20;79.50;;;;;;5005234;28;19912;-67
2023/04/27 10:14:06;;;;;;;;;;;10.30;79.40;;;;;;5037527;28;19917;-67
2023/04/27 10:16:52;;;;;;;;;;;10.30;79.30;;;;;;5045133;28;19952;-67
2023/04/27 10:19:18;;;;;;;;;;;10.40;79.20;;;;;;5044919;28;19912;-67
2023/04/27 10:22:10;;;;;;;;;;;10.40;79.00;;;;;;5044768;28;19921;-67
2023/04/27 10:24:38;;;;;;;;;;;10.50;78.60;;;;;;5042429;28;19944;-67
2023/04/27 10:27:07;;;;;;;;;;;10.50;78.90;;;;;;5044828;28;19913;-67
2023/04/27 10:29:43;;;;;;;;;;;10.60;77.40;;;;;;5044955;28;20335;-67
2023/04/27 10:32:08;;;;;;;;;;;10.70;78.90;;;;;;5009724;28;19956;-67
2023/04/27 10:34:35;;;;;;;;;;;10.70;79.40;;;;;;5040295;28;20017;-67
2023/04/27 10:37:08;;;;;;;;;;;10.80;79.40;;;;;;5024837;28;19913;-67
2023/04/27 10:39:36;;;;;;;;;;;10.80;79.20;;;;;;5024817;28;19913;-67
2023/04/27 10:42:02;;;;;;;;;;;10.90;79.00;;;;;;5041640;28;19962;-67
2023/04/27 10:44:28;;;;;;;;;;;11.00;78.80;;;;;;5048061;28;19960;-67
2023/04/27 10:46:55;;;;;;;;;;;11.10;78.90;;;;;;5030078;28;19919;-67
2023/04/27 10:49:20;;;;;;;;;;;11.20;79.20;;;;;;5047969;28;19919;-67
2023/04/27 10:51:47;;;;;;;;;;;11.30;79.30;;;;;;5047896;28;20308;-67
2023/04/27 10:54:13;;;;;;;;;;;11.40;79.10;;;;;;5032178;28;20411;-67
2023/04/27 10:56:39;;;;;;;;;;;11.50;78.20;;;;;;5029642;28;19950;-67
2023/04/27 10:59:04;;;;;;;;;;;11.60;78.40;;;;;;5047469;28;19915;-67
2023/04/27 11:01:30;;;;;;;;;;;11.70;79.10;;;;;;5047851;28;19913;-67
2023/04/27 11:03:56;;;;;;;;;;;11.80;78.70;;;;;;5047393;28;19981;-67
2023/04/27 11:06:22;;;;;;;;;;;11.90;79.00;;;;;;5047890;28;19920;-68
2023/04/27 11:08:47;;;;;;;;;;;11.90;79.30;;;;;;5047521;28;19913;-68
2023/04/27 11:11:13;;;;;;;;;;;12.00;78.90;;;;;;5047698;28;20285;-68
2023/04/27 11:13:42;;;;;;;;;;;12.10;79.20;;;;;;5047129;28;19909;-68
2023/04/27 11:16:07;;;;;;;;;;;12.20;78.30;;;;;;5047658;28;20277;-67
2023/04/27 11:18:35;;;;;;;;;;;12.30;79.10;;;;;;5047637;28;19920;-68
2023/04/27 11:21:14;;;;;;;;;;;12.30;79.30;;;;;;5047408;28;19917;-68
2023/04/27 11:23:40;;;;;;;;;;;12.40;79.20;;;;;;5047016;28;19913;-67
2023/04/27 11:26:13;;;;;;;;;;;12.50;79.30;;;;;;5047570;28;20297;-68
2023/04/27 11:28:39;;;;;;;;;;;12.60;79.20;;;;;;5047327;28;19909;-67
2023/04/27 11:31:05;;;;;;;;;;;12.60;78.90;;;;;;5047637;28;20549;-68
2023/04/27 11:33:31;;;;;;;;;;;12.80;79.00;;;;;;5047103;28;19909;-68
2023/04/27 11:35:57;;;;;;;;;;;12.80;79.00;;;;;;5047194;28;19966;-68
2023/04/27 11:38:22;;;;;;;;;;;12.90;78.80;;;;;;5029468;28;19913;-68
2023/04/27 11:41:04;;;;;;;;;;;13.00;78.80;;;;;;5046830;28;19947;-68
2023/04/27 11:43:30;;;;;;;;;;;13.10;78.80;;;;;;5046778;28;19933;-67
2023/04/27 11:45:57;;;;;;;;;;;13.10;78.70;;;;;;5029286;28;20309;-68
2023/04/27 11:48:23;;;;;;;;;;;13.20;78.80;;;;;;5047330;28;19920;-68
2023/04/27 11:50:49;;;;;;;;;;;13.20;78.70;;;;;;5047391;28;19913;-68
2023/04/27 11:53:15;;;;;;;;;;;13.30;79.00;;;;;;5046427;28;19919;-68
2023/04/27 11:55:41;;;;;;;;;;;13.30;79.20;;;;;;5046752;28;20297;-67
2023/04/27 11:58:14;;;;;;;;;;;13.40;79.20;;;;;;5056068;27;19913;-68
2023/04/27 12:00:39;;;;;;;;;;;13.40;79.30;;;;;;5046352;28;19919;-68
2023/04/27 12:03:05;;;;;;;;;;;13.50;79.50;;;;;;5046660;28;19917;-68
2023/04/27 12:05:31;;;;;;;;;;;13.50;79.60;;;;;;5046939;28;20045;-68
2023/04/27 12:07:57;;;;;;;;;;;13.60;79.60;;;;;;5046664;28;20427;-68
2023/04/27 12:10:23;;;;;;;;;;;13.60;79.60;;;;;;5046845;28;20011;-68
2023/04/27 12:12:49;;;;;;;;;;;13.70;80.00;;;;;;5046242;28;20027;-68
2023/04/27 12:15:15;;;;;;;;;;;13.70;80.10;;;;;;5028739;28;20007;-68
2023/04/27 12:17:40;;;;;;;;;;;13.80;80.20;;;;;;5046924;27;19913;-68
2023/04/27 12:20:06;;;;;;;;;;;13.80;80.10;;;;;;5046796;28;19909;-67
2023/04/27 12:22:32;;;;;;;;;;;13.90;80.30;;;;;;5046079;28;19923;-67
2023/04/27 12:24:57;;;;;;;;;;;14.00;80.10;;;;;;5046709;28;19917;-68
2023/04/27 12:27:23;;;;;;;;;;;14.00;80.40;;;;;;5028661;28;19951;-68
2023/04/27 12:29:49;;;;;;;;;;;14.10;80.40;;;;;;5046735;28;20016;-68
2023/04/27 12:32:15;;;;;;;;;;;14.10;80.30;;;;;;5046186;28;19909;-68
2023/04/27 12:34:41;;;;;;;;;;;14.10;80.40;;;;;;5046413;28;19916;-68
2023/04/27 12:37:07;;;;;;;;;;;14.10;80.60;;;;;;5028397;28;19916;-68
2023/04/27 12:39:33;;;;;;;;;;;14.10;80.70;;;;;;5046378;28;19912;-68
2023/04/27 12:41:58;;;;;;;;;;;14.20;80.80;;;;;;5045931;28;20385;-68
2023/04/27 12:44:24;;;;;;;;;;;14.30;80.90;;;;;;5046225;28;19917;-68
2023/04/27 12:46:49;;;;;;;;;;;14.40;80.90;;;;;;5055008;27;19912;-68
2023/04/27 12:49:15;;;;;;;;;;;14.40;80.50;;;;;;5066144;28;19969;-68
2023/04/27 12:51:41;;;;;;;;;;;14.40;80.00;;;;;;5066288;28;19913;-68
2023/04/27 12:54:07;;;;;;;;;;;14.50;79.60;;;;;;5065626;28;19943;-68
2023/04/27 12:56:33;;;;;;;;;;;14.60;79.40;;;;;;5055180;28;19913;-68
2023/04/27 12:58:58;;;;;;;;;;;14.70;79.30;;;;;;5039680;28;19919;-68
2023/04/27 13:01:26;;;;;;;;;;;14.80;78.60;;;;;;5045788;28;19909;-68
2023/04/27 13:03:54;;;;;;;;;;;14.90;77.80;;;;;;5045675;28;20389;-68
2023/04/27 13:06:21;;;;;;;;;;;15.00;77.70;;;;;;5045375;28;20270;-68
2023/04/27 13:08:47;;;;;;;;;;;15.00;77.60;;;;;;5045723;28;19977;-68
2023/04/27 13:11:13;;;;;;;;;;;15.00;76.60;;;;;;5046067;28;19913;-68
2023/04/27 13:13:38;;;;;;;;;;;15.10;76.80;;;;;;5045380;28;19909;-68
2023/04/27 13:16:04;;;;;;;;;;;15.20;76.70;;;;;;5045951;28;19909;-68
2023/04/27 13:18:30;;;;;;;;;;;15.20;76.60;;;;;;5027946;28;20029;-68
2023/04/27 13:20:56;;;;;;;;;;;15.30;76.70;;;;;;5045720;28;20350;-68
2023/04/27 13:23:21;;;;;;;;;;;15.30;76.60;;;;;;5045294;28;19917;-68
2023/04/27 13:25:48;;;;;;;;;;;15.40;76.70;;;;;;5044952;28;20213;-68
2023/04/27 13:28:15;;;;;;;;;;;15.50;77.00;;;;;;5045432;28;19917;-68
2023/04/27 13:30:40;;;;;;;;;;;15.50;76.60;;;;;;5045604;28;19947;-68
2023/04/27 13:33:06;;;;;;;;;;;15.60;76.40;;;;;;5027027;28;19960;-68
2023/04/27 13:35:31;;;;;;;;;;;15.70;76.50;;;;;;5045573;28;20437;-68
2023/04/27 13:37:57;;;;;;;;;;;15.70;76.60;;;;;;5045533;28;19913;-68
2023/04/27 13:40:22;;;;;;;;;;;15.70;76.60;;;;;;5045413;28;20515;-68
2023/04/27 13:42:48;;;;;;;;;;;15.70;76.40;;;;;;5044923;28;19965;-68
2023/04/27 13:45:14;;;;;;;;;;;15.80;76.50;;;;;;5045544;28;19916;-68
2023/04/27 13:47:40;;;;;;;;;;;15.90;77.00;;;;;;5045276;28;19944;-68
2023/04/27 13:50:06;;;;;;;;;;;15.90;77.20;;;;;;5045333;28;20307;-68
2023/04/27 13:52:33;;;;;;;;;;;15.90;77.10;;;;;;5045156;28;19912;-68
2023/04/27 13:54:58;;;;;;;;;;;16.00;77.10;;;;;;5045331;28;19913;-68
2023/04/27 13:57:24;;;;;;;;;;;16.00;77.00;;;;;;5033995;27;19919;-69
2023/04/27 13:59:49;;;;;;;;;;;16.10;76.80;;;;;;5019158;28;19920;-69
2023/04/27 14:02:15;;;;;;;;;;;16.10;76.80;;;;;;5041305;28;19955;-68
2023/04/27 14:04:40;;;;;;;;;;;16.20;76.40;;;;;;5044420;28;19929;-69
2023/04/27 14:07:06;;;;;;;;;;;16.20;76.70;;;;;;5042752;28;19913;-69
2023/04/27 14:09:31;;;;;;;;;;;16.30;76.30;;;;;;5043516;28;20607;-69
2023/04/27 14:11:58;;;;;;;;;;;16.40;76.00;;;;;;5041377;28;19920;-69
2023/04/27 14:14:23;;;;;;;;;;;16.40;75.30;;;;;;5043269;28;20319;-69
2023/04/27 14:16:51;;;;;;;;;;;16.40;74.20;;;;;;5105025;27;19915;-69
2023/04/27 14:19:19;;;;;;;;;;;16.50;73.90;;;;;;5149138;27;20374;-69
2023/04/27 14:21:45;;;;;;;;;;;16.50;73.60;;;;;;5111116;27;20373;-69